Bola57

Jackpot

Texas Poker Multi Jackpot System

Kini Telah hadir Jackpot SUPER ROYAL FLUSH

Kini Telah hadir Jackpot 2000 (khusus table VIP keatas).

Ikutilah global jackpot yang tersedia di system kami, dengan system jackpot terbaru dan pertama di indonesia, anda dapat membeli jackpot dengan harga 100 rupiah saja dan menangkan hadiahnya hingga puluhan juta rupiah.

Jackpot bukanlah suatu keharusan untuk dibeli, namun kami memberikan suatu fitur tambahan untuk member tercinta dari www.masterpoker99.org.

Terdapat tiga pilihan harga jackpot yang bisa anda beli yaitu :100,500,1000 dan 2000(khusus table VIP Keatas) rupiah.

Hadiah dari Multi jackpot system www.masterpoker99.org

  1. full house x 10 harga jackpot yang anda beli.
      (contoh:anda membeli 1000 maka:1000 X10 = 10.000)
  2. four of kind x 250 harga jackpot yang anda beli
      (contoh:anda membeli 1000 maka:1000 X250 = 250.000)
  3. Straight flush x 1200
      (contoh:anda membeli 1000 maka:1000 X1200 = 1.200.000)
  4. Royal flush x 10000 harga jackpot yang anda beli
      (contoh:anda membeli 1000 maka:1000 X10000 = 10.000.000)
  5. SUPER ROYAL FLUSH x 30000 harga jackpot yang anda beli
      (contoh:anda membeli 1000 maka:1000 X30000 = 30.000.000)

Kondisi kartu

  1. full house adalah kondisi kartu dimana kartu anda dan kartu tengah dengan total 7 kartu bisa mendapatkan nilai 5 kartu dengan kombinasi 1 tris(three of kind) dan 1 pair, contoh 3 kartu 10 dan 2 kartu 5
  2. Four of kind adalah kondisi kartu dimana kartu anda dan kartu tengah dengan total 7 kartu bisa mendapatkan nilai 5 kartu dengan kombinasi 4 kartu yang sama jumlah dan 1 kartu apapun juga contoh anda mendapatkan 4 buah kartu angka 3 dan 1 kartu apapun.
  3. Staright flush adalah kondisi kartu dimana kartu anda dan kartu tengah dengan total 7 kartu bisa mendapatkan nilai 5 kartu dengan kombinasi seri / staright dengan kembang yang sama contoh : urutan kartu dari angka 5, 6, 7, 8 , 9 10 dengan kembang yg sama misalnya as hati
  4. Royal flush adalah kondisi kartu dimana kartu anda dan kartu tengah dengan total 7 kartu bisa mendapatkan nilai 5 kartu dengan kombinasi seri / staright dengan kembang yang sama tetapi kartu tersebut haruslah dimulai dari 10. contoh 10, Queen, Jack, King dan aces dengan kembang yang sama
  5. Super Royal flush adalah kondisi kartu dimana Kedua kartu anda digabung dengan 3 kartu pertama meja haruslah royal flush. contoh kartu anda 10,Queen kembang sama dan 3 kartu pertama meja adalah Jack, King dan aces dengan kembang yang sama

Demikian adalah penjelasan dari Multi Jackpot www.masterpoker99.org terima kasih dan selamat bermain salam hoki dari kami

Texas Poker Jackpot Winner

TOP SUPER ROYAL FLUSH
No.TanggalNamaPriceWin
120/08 08:15KAWUL696Super Royal flush6,000,000
220/08 03:13MFF15Super Royal flush3,000,000
320/08 02:38USER9324Super Royal flush6,000,000
420/08 00:47L0H4Y11Super Royal flush15,000,000
519/08 21:26IBOTKERS1Super Royal flush6,000,000
TOP ROYAL FLUSH
No.TanggalNamaPriceWin
120/08 10:10ICHAA69Royal flush2,000,000
220/08 10:08MANTAPBANARoyal flush10,000,000
320/08 09:29A53USMAN642Royal flush2,000,000
420/08 09:20UWONGTUARoyal flush10,000,000
520/08 09:10ABILWAWA76Royal flush1,000,000
TOP STRAIGHT FLUSH
No.TanggalNamaPriceWin
120/08 10:32VV79Straight Flush60,000
220/08 10:28OJAT_RDRStraight Flush1,200,000
320/08 10:26E22IBDTUZBStraight Flush1,200,000
420/08 10:26KHARIM7Straight Flush2,400,000
520/08 10:21PAULL444Straight Flush600,000
LATEST JACKPOT
No.TanggalNamaPriceWin
120/08 10:32BUDMUYANQQFull House500
220/08 10:32NONAME_IDFull House2,000
320/08 10:32VV79Straight Flush60,000
420/08 10:32D7102063Full House10,000
520/08 10:32PAULL444Full House5,000
620/08 10:32CRAYTOS90Full House1,000
720/08 10:32D4A977E9Full House2,000
820/08 10:32YORII27Four Of A Kind250,000
920/08 10:32HASANDEWA1Full House5,000
1020/08 10:32CEMEK88Full House2,000
1120/08 10:32TAKBIRAKBAFour Of A Kind50,000
1220/08 10:32ALFASALAM8Full House5,000
1320/08 10:32Q1YIRA18Full House5,000
1420/08 10:32MENYENG999Four Of A Kind125,000
1520/08 10:32NYOOO18Full House5,000
1620/08 10:32H0KICOY8Full House10,000
1720/08 10:32WAITINGJKRFull House2,000
1820/08 10:32JAM55Full House1,000
1920/08 10:32ANJAR13Full House10,000
2020/08 10:32WADUKSIAFull House2,000
2120/08 10:32CB1D56C7Full House1,000
2220/08 10:32TULUT9Full House1,000
2320/08 10:32ARMANDO29Full House2,000
2420/08 10:32CURI30Full House1,000
2520/08 10:31CHAOWAFull House2,000
2620/08 10:31OMINK3B0Full House5,000
2720/08 10:31ETHAN777Full House2,000
2820/08 10:31KAKAK2011Full House10,000
2920/08 10:31JOE1992Full House1,000
3020/08 10:31KHANHVAN12Full House2,000
3120/08 10:31SEBATS278Full House10,000
3220/08 10:31ICIBOT88Full House10,000
3320/08 10:31KOPIJON1Full House5,000
3420/08 10:31ALM100HARIFull House500
3520/08 10:31BAGOES17Full House5,000
3620/08 10:31ASOOOY999Full House5,000
3720/08 10:31WEIAZ777Full House20,000
3820/08 10:31BELASYNKFull House10,000
3920/08 10:31FARID122Full House2,000
4020/08 10:31DAVVVINCIFull House2,000
4120/08 10:31C5FA2D3BFull House2,000
4220/08 10:31AWENX13Full House5,000
4320/08 10:31BALID3UGFull House1,000
4420/08 10:31B1ORKJ4S8TFull House5,000
4520/08 10:31PLN73Full House2,000
4620/08 10:31ABEHDAHLANFull House2,000
4720/08 10:31ETHAN777Full House2,000
4820/08 10:31F4NY29Four Of A Kind50,000
4920/08 10:31OMEN09Full House5,000
5020/08 10:31TU_PAY212Full House2,000

Domino Multi Jackpot System

Ikutilah global jackpot yang tersedia di system kami, dengan system jackpot terbaru dan pertama di indonesia, anda dapat membeli jackpot dengan harga 100 rupiah saja dan menangkan hadiahnya hingga puluhan juta rupiah.

Jackpot bukanlah suatu keharusan untuk dibeli, namun kami memberikan suatu fitur tambahan untuk member tercinta dari www.masterpoker99.org.

Terdapat tiga pilihan harga jackpot yang bisa anda beli yaitu :100,500 dan 1000 rupiah.

Hadiah dari Multi jackpot system www.masterpoker99.org

  1. Murni Kecil x 50 harga jackpot yang anda beli.
      (contoh:anda membeli 1000 maka:1000 X 50 = 50.000)
  2. Murni Besar x 50 harga jackpot yang anda beli
      (contoh:anda membeli 1000 maka:1000 X 50 = 50.000)
  3. BALAK x 100 harga jackpot yang anda beli
      (contoh:anda membeli 1000 maka:1000 X 100 = 100.000)
  4. ENAM DEWA x 6666 harga jackpot yang anda beli
      (contoh:anda membeli 1000 maka:1000 X 6666 = 6.666.000)

Demikian adalah penjelasan dari Multi Jackpot www.masterpoker99.org terima kasih dan selamat bermain salam hoki dari kami

Domino Jackpot Winner

TOP ENAM DEWA
No.TanggalNamaPriceWin
120/08 05:23GOD_LOVERSmurni enam3,333,000
220/08 02:37LICIN99murni enam6,666,000
320/08 02:17BP888911murni enam6,666,000
420/08 00:44NAGA_BNImurni enam666,600
520/08 00:28PHENCHOR76murni enam3,333,000
TOP BALAK
No.TanggalNamaPriceWin
120/08 10:30B18NDI1balak10,000
220/08 10:30MULYAWAN90balak50,000
320/08 10:25IDK898544balak100,000
420/08 10:22CAHBAGUS45balak100,000
520/08 10:16CAMONKKbalak100,000
LATEST JACKPOT
No.TanggalNamaPriceWin
120/08 10:31ARFIN99murni besar50,000
220/08 10:30B18NDI1balak10,000
320/08 10:30MULYAWAN90balak50,000
420/08 10:29PORTALKM10murni besar50,000
520/08 10:29GHOSENK57murni besar5,000
620/08 10:29KUNCLUNG99murni kecil50,000
720/08 10:28REDY2345murni kecil5,000
820/08 10:27PURWADI_44murni kecil50,000
920/08 10:26VIET123murni kecil50,000
1020/08 10:25ME515ANmurni kecil5,000
1120/08 10:25NCVmurni besar50,000
1220/08 10:25IDK898544balak100,000
1320/08 10:25TINA77murni besar50,000
1420/08 10:24PUNGUmurni besar50,000
1520/08 10:24SARIMON8murni besar50,000
1620/08 10:22CAHBAGUS45balak100,000
1720/08 10:22MONCI21murni besar50,000
1820/08 10:22NGIH4Mmurni kecil25,000
1920/08 10:21TEMPUR485murni kecil50,000
2020/08 10:20FEBRIANSYAmurni besar25,000
2120/08 10:20ELVZ23murni kecil50,000
2220/08 10:20KABUD6666murni kecil50,000
2320/08 10:19LINGGO49murni besar50,000
2420/08 10:17F260410lucky9950,000
2520/08 10:17QCPUX83AIZmurni kecil25,000
2620/08 10:16CAMONKKbalak100,000
2720/08 10:16CILANGAU23murni kecil50,000
2820/08 10:15ZAINI321murni kecil50,000
2920/08 10:15BANCERmurni besar50,000
3020/08 10:15BARNIE00murni besar25,000
3120/08 10:14REZKY455murni besar50,000
3220/08 10:13MCDURKYmurni kecil50,000
3320/08 10:12PANISAHmurni besar50,000
3420/08 10:12MYGYHD5AWAmurni kecil25,000
3520/08 10:12KUD73murni kecil50,000
3620/08 10:12IJUH554murni besar25,000
3720/08 10:11MRSITObalak50,000
3820/08 10:10TUTOBANKRUDmurni kecil50,000
3920/08 10:09B18NDI1murni besar5,000
4020/08 10:09DAESE69murni kecil50,000
4120/08 10:09JIMIN123balak100,000
4220/08 10:07ZAMAN_NOW1murni besar50,000
4320/08 10:06ADMIN20murni kecil50,000
4420/08 10:05BANTU9999murni kecil25,000
4520/08 10:05ARISMAN714balak10,000
4620/08 10:03GOTFATHERbalak100,000
4720/08 10:01MYGYHD5AWAmurni kecil25,000
4820/08 10:01KUNCLUNG99balak100,000
4920/08 10:00ELVZ23murni besar50,000
5020/08 10:00LAY8181murni kecil50,000

Ceme Multi Jackpot System

Jackpot dilihat dari gabungan kartu pemain dengan kartu bandar. Bandar harus membeli jackpot sebanyak jumlah player yang sedang duduk. Sebagai contoh bila terdapat 3 pemain duduk bermain, dan bandar memutuskan untuk membeli jackpot Rp 1.000, maka pada periode tersebut bandar akan membeli jackpot sebanyak 3xRp1.000 = Rp3.000.

Jackpot bukanlah suatu keharusan untuk dibeli, namun kami memberikan suatu fitur tambahan untuk member tercinta dari www.masterpoker99.org.

Terdapat tiga pilihan harga jackpot yang bisa anda beli yaitu :100,500 dan 1000 rupiah.

Hadiah dari Multi jackpot system www.masterpoker99.org

  1. Murni Kecil x 50 harga jackpot yang anda beli.
      (contoh:anda membeli 1000 maka:1000 X 50 = 50.000)
  2. Murni Besar x 50 harga jackpot yang anda beli
      (contoh:anda membeli 1000 maka:1000 X 50 = 50.000)
  3. BALAK x 200 harga jackpot yang anda beli
      (contoh:anda membeli 1000 maka:1000 X 200 = 200.000)
  4. ENAM DEWA x 6666 harga jackpot yang anda beli
      (contoh:anda membeli 1000 maka:1000 X 6666 = 6.666.000)

Demikian adalah penjelasan dari Multi Jackpot www.masterpoker99.org terima kasih dan selamat bermain salam hoki dari kami

Ceme Jackpot Winner

TOP ENAM DEWA
No.TanggalNamaPriceWin
120/08 10:23GONDOL113murni enam6,666,000
220/08 10:23PIONERR002murni enam6,666,000
320/08 10:23BOCOR555murni enam6,666,000
420/08 09:37OTONGOSmurni enam3,333,000
520/08 09:32GPJ69murni enam6,666,000
TOP BALAK
No.TanggalNamaPriceWin
120/08 10:31MANISE303balak200,000
220/08 10:28PLATI23balak200,000
320/08 10:28CUROK888balak20,000
420/08 10:28LB997149balak100,000
520/08 10:27MAROEMbalak200,000
LATEST JACKPOT
No.TanggalNamaPriceWin
120/08 10:32SANDYSHTmurni kecil50,000
220/08 10:32VLWM585K03murni kecil25,000
320/08 10:31SUADMA11murni kecil50,000
420/08 10:31GUSTISANTUmurni kecil25,000
520/08 10:31ANA_ARUSmurni kecil25,000
620/08 10:31IPOKER12murni kecil50,000
720/08 10:31ULUM818murni kecil50,000
820/08 10:31MANISE303balak200,000
920/08 10:30ALEXKIDmurni kecil5,000
1020/08 10:30BJL09murni besar50,000
1120/08 10:30B40FAUZIAHM418murni besar5,000
1220/08 10:29TOWEREmurni kecil5,000
1320/08 10:29PELIMmurni besar50,000
1420/08 10:29ANCUR112murni kecil50,000
1520/08 10:29F1TRA1111murni besar50,000
1620/08 10:29D7OYE2FHWYmurni kecil50,000
1720/08 10:29ASHIDAmurni kecil50,000
1820/08 10:29TOPEX74murni kecil50,000
1920/08 10:28PLATI23balak200,000
2020/08 10:28CUROK888balak20,000
2120/08 10:28LB997149balak100,000
2220/08 10:28MRJ0K3Rmurni besar50,000
2320/08 10:28UDAY2murni kecil50,000
2420/08 10:28JOGJAA303murni kecil50,000
2520/08 10:28BEJREH6666murni kecil25,000
2620/08 10:28GOOGLE12murni kecil5,000
2720/08 10:28MANISE303murni kecil50,000
2820/08 10:28DMZ9murni kecil5,000
2920/08 10:28SINTAIK12murni kecil5,000
3020/08 10:28CILUPBA89murni kecil5,000
3120/08 10:28KHENDYmurni besar50,000
3220/08 10:28BIBIH12murni besar50,000
3320/08 10:28BRENDOLL72murni besar50,000
3420/08 10:27YUSTO888murni besar50,000
3520/08 10:27QQLMPUNG99murni besar5,000
3620/08 10:27MAROEMbalak200,000
3720/08 10:27ANJAS997balak200,000
3820/08 10:27WCHANbalak200,000
3920/08 10:27ENDRA1986balak200,000
4020/08 10:27AGNOVbalak100,000
4120/08 10:27UDAY2murni besar50,000
4220/08 10:27KIPODOLAmurni besar50,000
4320/08 10:27SHANTINOmurni besar50,000
4420/08 10:26DIGITEC12balak20,000
4520/08 10:26AGUSDEVIbalak20,000
4620/08 10:26BEZERTA88balak100,000
4720/08 10:26THEWATCHmurni besar5,000
4820/08 10:25HOME88800murni kecil25,000
4920/08 10:25NATAOVJ32murni kecil5,000
5020/08 10:25LANCARIN99murni kecil50,000